Time;durP1;ratioP1;P1;durP2;ratioP2;P2;SDS_P1;SDS_P2;PMS_P1;PMS_P2;Temp;Humidity;BMP_temperature;BMP_pressure;BME280_temperature;BME280_humidity;BME280_pressure;Samples;Min_cycle;Max_cycle;Signal;HPM_P1;HPM_P2
2022/11/15 00:00:32;;;;;;;;;5.75;5.00;;;;;12.02;85.10;100438.56;5011462;28;45511;-86
2022/11/15 00:02:57;;;;;;;;;5.25;4.00;;;;;11.92;85.08;100426.06;5026232;28;45293;-85
2022/11/15 00:05:23;;;;;;;;;6.00;5.25;;;;;11.78;85.19;100415.13;5009660;28;48228;-87
2022/11/15 00:07:48;;;;;;;;;7.50;7.50;;;;;12.17;85.10;100474.00;5010954;28;45694;-83
2022/11/15 00:10:13;;;;;;;;;6.00;6.00;;;;;11.88;85.08;100429.47;5009849;28;45624;-85
2022/11/15 00:12:39;;;;;;;;;6.00;5.25;;;;;12.20;85.02;100492.53;5011420;28;45824;-86
2022/11/15 00:15:05;;;;;;;;;7.00;6.00;;;;;11.74;84.86;100418.53;5009074;28;48036;-85
2022/11/15 00:17:30;;;;;;;;;5.50;5.25;;;;;11.73;84.97;100408.88;5011362;28;45608;-86
2022/11/15 00:19:55;;;;;;;;;7.00;6.00;;;;;11.48;84.77;100367.91;5010929;28;45343;-84
2022/11/15 00:22:21;;;;;;;;;5.50;4.50;;;;;11.84;85.19;100432.88;5010385;28;45570;-86
2022/11/15 00:24:46;;;;;;;;;6.50;5.50;;;;;11.65;84.89;100402.53;5010874;28;46046;-85
2022/11/15 00:27:12;;;;;;;;;4.00;4.00;;;;;12.05;84.68;100479.88;5009267;28;45481;-86
2022/11/15 00:29:38;;;;;;;;;6.00;5.75;;;;;12.01;85.44;100480.66;5014116;28;48253;-85
2022/11/15 00:32:04;;;;;;;;;4.75;4.00;;;;;11.80;85.41;100442.38;5014580;28;45568;-87
2022/11/15 00:34:29;;;;;;;;;5.25;4.25;;;;;11.39;85.26;100383.47;5014333;28;46495;-85
2022/11/15 00:36:55;;;;;;;;;8.75;7.00;;;;;11.66;84.82;100420.09;5014210;28;45836;-85
2022/11/15 00:39:20;;;;;;;;;15.33;14.33;;;;;11.71;85.09;100426.34;5014885;28;45541;-87
2022/11/15 00:41:45;;;;;;;;;19.33;13.33;;;;;11.26;85.05;100362.94;5014032;28;45497;-85
2022/11/15 00:44:11;;;;;;;;;17.50;14.00;;;;;11.63;85.17;100436.72;5014015;28;45625;-86
2022/11/15 00:46:36;;;;;;;;;10.75;9.00;;;;;11.39;85.10;100388.72;5013042;28;45397;-85
2022/11/15 00:49:01;;;;;;;;;6.25;6.00;;;;;11.23;85.12;100366.41;5013955;28;45506;-85
2022/11/15 00:51:27;;;;;;;;;9.25;7.00;;;;;11.31;85.06;100388.50;5014760;28;45465;-86
2022/11/15 00:53:52;;;;;;;;;6.00;5.00;;;;;11.14;85.25;100355.63;5013725;28;46038;-85
2022/11/15 00:56:17;;;;;;;;;8.50;6.25;;;;;11.50;85.25;100410.91;5012848;28;45775;-86
2022/11/15 00:58:42;;;;;;;;;8.33;7.33;;;;;11.50;85.08;100415.31;5013788;28;46573;-87
2022/11/15 01:01:14;;;;;;;;;4.67;4.67;;;;;11.53;85.04;100428.56;5013673;28;45436;-87
2022/11/15 01:03:41;;;;;;;;;6.00;6.00;;;;;11.39;84.75;100404.50;5013754;28;46608;-86
2022/11/15 01:06:09;;;;;;;;;5.25;4.50;;;;;10.76;84.80;100307.28;5013045;28;45467;-85
2022/11/15 01:08:35;;;;;;;;;6.00;6.00;;;;;11.40;84.84;100415.91;5007334;28;45479;-86
2022/11/15 01:11:06;;;;;;;;;6.00;5.00;;;;;11.53;84.67;100442.59;4994023;28;45810;-85
2022/11/15 01:13:34;;;;;;;;;6.50;5.00;;;;;10.72;85.01;100311.56;4994276;28;46118;-87
2022/11/15 01:16:06;;;;;;;;;4.00;4.00;;;;;11.29;84.70;100406.00;4992003;28;46036;-85
2022/11/15 01:18:32;;;;;;;;;4.00;4.00;;;;;10.85;84.90;100329.44;4994003;28;45587;-87
2022/11/15 01:20:57;;;;;;;;;4.75;4.50;;;;;11.23;84.87;100376.00;4994067;28;45942;-84
2022/11/15 01:23:22;;;;;;;;;6.00;5.75;;;;;11.01;84.49;100345.63;4994165;28;53073;-85
2022/11/15 01:25:48;;;;;;;;;5.75;5.75;;;;;10.68;84.21;100290.41;4993406;28;45509;-87
2022/11/15 01:28:13;;;;;;;;;6.75;5.00;;;;;11.16;84.94;100377.59;4993108;28;45491;-88
2022/11/15 01:30:38;;;;;;;;;5.00;5.00;;;;;10.49;84.49;100268.00;4994065;28;45451;-85
2022/11/15 01:33:04;;;;;;;;;9.25;7.00;;;;;11.30;84.83;100399.00;4992398;28;45455;-84
2022/11/15 01:35:29;;;;;;;;;7.25;5.00;;;;;10.78;84.31;100318.72;4993942;28;45597;-87
2022/11/15 01:37:54;;;;;;;;;10.75;9.00;;;;;11.36;84.71;100421.09;4993713;28;45904;-87
2022/11/15 01:40:20;;;;;;;;;7.25;7.25;;;;;11.15;84.42;100382.81;4993391;28;46137;-85
2022/11/15 01:42:45;;;;;;;;;4.75;4.75;;;;;10.89;84.25;100333.06;4993454;28;45699;-87
2022/11/15 01:45:14;;;;;;;;;8.50;6.50;;;;;11.24;84.34;100394.47;4992227;28;45418;-88
2022/11/15 01:47:48;;;;;;;;;6.00;5.00;;;;;11.21;84.23;100410.16;4993099;28;45637;-86
2022/11/15 01:50:29;;;;;;;;;4.50;4.50;;;;;10.94;84.23;100357.75;4992616;28;45641;-87
2022/11/15 01:52:55;;;;;;;;;5.75;5.00;;;;;10.26;84.52;100234.13;4991455;28;47059;-86
2022/11/15 01:55:24;;;;;;;;;4.25;4.25;;;;;11.14;84.54;100381.94;4992012;28;45923;-86
2022/11/15 01:57:55;;;;;;;;;5.25;5.00;;;;;10.31;84.34;100243.03;4993540;28;45728;-87
2022/11/15 02:00:21;;;;;;;;;5.50;5.50;;;;;11.07;84.64;100359.81;4992636;28;45388;-84
2022/11/15 02:02:46;;;;;;;;;5.00;5.00;;;;;10.76;84.01;100304.66;4992379;28;46340;-85
2022/11/15 02:05:12;;;;;;;;;5.75;5.00;;;;;10.90;84.42;100340.09;4991975;28;45841;-85
2022/11/15 02:07:38;;;;;;;;;5.75;5.00;;;;;10.32;83.78;100239.53;4993261;28;45901;-84
2022/11/15 02:10:11;;;;;;;;;5.50;5.00;;;;;10.15;84.08;100211.91;5008953;28;45556;-84
2022/11/15 02:12:37;;;;;;;;;6.00;5.00;;;;;10.30;83.58;100237.75;5012910;28;46391;-84
2022/11/15 02:15:04;;;;;;;;;7.00;5.75;;;;;10.73;83.88;100329.09;5027918;28;45839;-84
2022/11/15 02:17:55;;;;;;;;;5.00;4.75;;;;;10.70;84.22;100312.38;5027936;28;45939;-87
2022/11/15 02:20:35;;;;;;;;;4.50;4.25;;;;;10.89;83.97;100340.94;5013516;28;45572;-86
2022/11/15 02:23:00;;;;;;;;;5.00;5.00;;;;;10.87;83.87;100333.84;5011084;28;47381;-86
2022/11/15 02:25:37;;;;;;;;;4.00;4.00;;;;;10.85;84.51;100334.72;5011505;28;45312;-86
2022/11/15 02:28:08;;;;;;;;;4.50;4.50;;;;;10.87;84.05;100324.22;5012899;28;45680;-88
2022/11/15 02:30:34;;;;;;;;;4.25;3.50;;;;;10.88;84.22;100322.47;5011335;28;45727;-86
2022/11/15 02:33:18;;;;;;;;;5.00;4.67;;;;;9.97;83.99;100156.25;5010349;28;47326;-86
2022/11/15 02:35:57;;;;;;;;;2.00;1.00;;;;;10.48;83.82;100234.69;5012373;28;45441;-86
2022/11/15 02:38:33;;;;;;;;;4.00;4.00;;;;;10.24;83.68;100188.53;5011397;28;45495;-86
2022/11/15 02:41:04;;;;;;;;;5.00;4.25;;;;;10.94;83.89;100291.13;5012488;28;45990;-87
2022/11/15 02:49:31;;;;;;;;;6.25;6.25;;;;;10.85;83.89;100276.00;5013212;28;45561;-86
2022/11/15 02:51:58;;;;;;;;;4.00;4.00;;;;;10.61;83.70;100242.06;5011338;28;45522;-87
2022/11/15 02:54:28;;;;;;;;;5.25;5.25;;;;;10.24;83.25;100171.88;5010927;28;47017;-88
2022/11/15 02:57:02;;;;;;;;;5.00;5.00;;;;;10.09;83.18;100140.81;5010740;28;45509;-85
2022/11/15 02:59:56;;;;;;;;;10.25;8.75;;;;;10.97;83.33;100285.91;5011348;28;45372;-85
2022/11/15 03:02:49;;;;;;;;;7.50;5.25;;;;;10.95;83.13;100283.25;5012158;28;45424;-84
2022/11/15 03:06:02;;;;;;;;;7.00;6.50;;;;;10.94;83.11;100283.22;5011047;28;48376;-86
2022/11/15 03:08:54;;;;;;;;;5.50;5.00;;;;;10.14;83.16;100147.09;4998419;28;45648;-87
2022/11/15 03:11:22;;;;;;;;;5.25;5.25;;;;;10.28;83.19;100164.13;4993168;28;45484;-86
2022/11/15 03:13:54;;;;;;;;;3.75;3.50;;;;;10.77;83.25;100228.47;4992101;28;45878;-85
2022/11/15 03:16:24;;;;;;;;;3.00;3.00;;;;;10.39;82.89;100172.28;4991884;28;45395;-86
2022/11/15 03:19:32;;;;;;;;;4.00;3.00;;;;;11.00;82.94;100257.97;4990753;28;45499;-85
2022/11/15 03:22:02;;;;;;;;;6.25;4.50;;;;;10.17;83.25;100113.03;4986319;28;45407;-83
2022/11/15 03:24:33;;;;;;;;;4.00;4.00;;;;;10.33;83.12;100136.25;4990836;28;45605;-85
2022/11/15 03:27:01;;;;;;;;;4.25;4.00;;;;;10.57;83.02;100182.41;4991804;28;45432;-83
2022/11/15 03:29:32;;;;;;;;;4.75;4.00;;;;;10.41;82.28;100154.84;4992827;28;45867;-84
2022/11/15 03:32:44;;;;;;;;;3.50;2.75;;;;;10.84;82.88;100235.66;4991526;28;45555;-85
2022/11/15 03:35:22;;;;;;;;;4.00;4.00;;;;;10.83;83.13;100240.88;4990011;28;45866;-86
2022/11/15 03:37:55;;;;;;;;;5.25;5.00;;;;;10.85;82.99;100244.44;4990162;28;47013;-84
2022/11/15 03:40:28;;;;;;;;;4.00;4.00;;;;;10.80;82.78;100241.69;4992262;28;45843;-85
2022/11/15 03:43:18;;;;;;;;;5.50;5.25;;;;;10.33;83.12;100156.38;4991988;28;45491;-85
2022/11/15 03:45:50;;;;;;;;;4.00;4.00;;;;;10.36;83.03;100155.59;4991345;28;45502;-88
2022/11/15 03:48:21;;;;;;;;;5.50;4.00;;;;;10.07;83.16;100109.28;4992103;28;45733;-86
2022/11/15 03:50:47;;;;;;;;;4.25;4.25;;;;;10.48;82.94;100184.78;4990287;28;45596;-86
2022/11/15 03:53:13;;;;;;;;;6.00;5.75;;;;;10.61;83.13;100223.69;4991906;28;46085;-86
2022/11/15 03:55:39;;;;;;;;;3.50;3.50;;;;;9.97;82.86;100104.66;4991822;28;45472;-85
2022/11/15 03:58:05;;;;;;;;;6.25;4.00;;;;;10.75;83.19;100240.69;4991757;28;46648;-84
2022/11/15 04:00:31;;;;;;;;;8.25;6.25;;;;;9.83;82.86;100071.88;4991811;28;45430;-85
2022/11/15 04:02:56;;;;;;;;;4.75;4.75;;;;;10.25;82.74;100163.19;4992354;28;45562;-87
2022/11/15 04:05:21;;;;;;;;;5.75;5.75;;;;;9.87;82.71;100102.63;4995822;28;46267;-86
2022/11/15 04:07:47;;;;;;;;;4.25;4.00;;;;;10.02;82.84;100138.91;4993204;28;47134;-87
2022/11/15 04:10:13;;;;;;;;;3.25;3.25;;;;;10.64;82.70;100242.16;5012634;28;45719;-85
2022/11/15 04:12:42;;;;;;;;;3.75;3.00;;;;;10.63;83.05;100236.84;5015143;28;45362;-85
2022/11/15 04:15:19;;;;;;;;;3.75;3.25;;;;;10.23;82.98;100160.47;5014460;28;45453;-86
2022/11/15 04:17:47;;;;;;;;;4.00;4.00;;;;;10.59;83.18;100222.75;5014386;28;46547;-83
2022/11/15 04:25:51;;;;;;;;;3.25;3.25;;;;;10.09;83.15;100138.19;5014676;28;45410;-86
2022/11/15 04:28:17;;;;;;;;;2.25;1.50;;;;;9.84;82.78;100097.28;5015162;28;45504;-85
2022/11/15 04:30:42;;;;;;;;;2.00;2.00;;;;;9.85;83.16;100114.78;5012582;28;45487;-84
2022/11/15 04:33:08;;;;;;;;;2.00;2.00;;;;;9.64;83.14;100069.63;5014808;28;45486;-87
2022/11/15 04:35:33;;;;;;;;;3.50;3.50;;;;;9.76;83.15;100083.97;5013432;28;45352;-86
2022/11/15 04:37:59;;;;;;;;;5.00;3.00;;;;;9.65;83.03;100047.78;5014043;28;45426;-86
2022/11/15 04:40:24;;;;;;;;;4.00;3.50;;;;;10.59;83.08;100209.63;5013734;28;45649;-87
2022/11/15 04:42:50;;;;;;;;;4.75;3.50;;;;;10.55;83.02;100190.25;5013035;28;45480;-85
2022/11/15 04:45:15;;;;;;;;;3.50;3.00;;;;;10.07;82.85;100111.91;5014577;28;45875;-86
2022/11/15 04:47:43;;;;;;;;;3.00;3.00;;;;;10.59;83.29;100199.09;5013782;28;45374;-87
2022/11/15 04:50:12;;;;;;;;;3.00;3.00;;;;;10.18;82.80;100129.69;5012878;28;46004;-87
2022/11/15 04:52:37;;;;;;;;;4.75;4.25;;;;;9.90;83.13;100078.19;5014225;28;45365;-87
2022/11/15 04:55:03;;;;;;;;;5.00;4.00;;;;;9.61;82.92;100025.84;5012623;28;45459;-87
2022/11/15 04:57:28;;;;;;;;;5.00;4.25;;;;;9.85;82.67;100074.53;5014544;28;46277;-86
2022/11/15 04:59:54;;;;;;;;;4.75;3.75;;;;;10.48;83.19;100180.41;5012334;28;45641;-88
2022/11/15 05:02:19;;;;;;;;;4.00;3.50;;;;;10.30;83.13;100141.44;5014303;28;45404;-85
2022/11/15 05:04:44;;;;;;;;;3.75;3.00;;;;;10.44;82.77;100167.16;5014130;28;45369;-85
2022/11/15 05:07:09;;;;;;;;;7.25;5.00;;;;;10.06;82.80;100104.88;5013807;28;45524;-84
2022/11/15 05:09:35;;;;;;;;;5.75;4.00;;;;;9.81;83.35;100064.00;5000326;28;45387;-85
2022/11/15 05:12:00;;;;;;;;;4.00;4.00;;;;;10.39;83.36;100172.28;4994379;28;45763;-87
2022/11/15 05:14:25;;;;;;;;;7.67;4.33;;;;;9.44;83.33;100007.00;4993585;28;45370;-84
2022/11/15 05:16:51;;;;;;;;;4.00;4.00;;;;;9.55;83.35;100034.41;4993230;28;45490;-87
2022/11/15 05:19:16;;;;;;;;;4.00;4.00;;;;;9.78;83.70;100061.25;4994445;28;45371;-87
2022/11/15 05:21:41;;;;;;;;;5.00;5.00;;;;;9.97;83.33;100088.00;4993855;28;45503;-86
2022/11/15 05:24:10;;;;;;;;;5.00;5.00;;;;;9.41;83.54;99987.66;4992995;28;45765;-86
2022/11/15 05:26:35;;;;;;;;;3.75;3.00;;;;;10.44;84.12;100172.41;4993990;28;45807;-86
2022/11/15 05:29:00;;;;;;;;;4.25;4.00;;;;;9.72;83.80;100028.75;4992200;28;45544;-86
2022/11/15 05:31:26;;;;;;;;;4.25;4.25;;;;;10.53;84.12;100157.78;4994163;28;45391;-87
2022/11/15 05:33:53;;;;;;;;;5.50;5.00;;;;;9.95;83.68;100050.31;4993716;28;45601;-86
2022/11/15 05:36:33;;;;;;;;;7.75;6.25;;;;;10.60;83.90;100156.22;4993758;28;46241;-88
2022/11/15 05:38:58;;;;;;;;;6.00;4.00;;;;;10.31;84.22;100116.06;4993785;28;45477;-87
2022/11/15 05:41:32;;;;;;;;;6.25;5.25;;;;;9.96;84.05;100037.25;4994450;28;45546;-87
2022/11/15 05:43:59;;;;;;;;;5.75;5.25;;;;;10.59;84.29;100128.16;4993511;28;45458;-87
2022/11/15 05:46:25;;;;;;;;;8.00;4.75;;;;;10.49;84.03;100106.03;4993793;28;46090;-87
2022/11/15 05:48:53;;;;;;;;;8.75;6.50;;;;;10.22;84.47;100053.66;4993488;28;45537;-86
2022/11/15 05:51:21;;;;;;;;;6.25;6.25;;;;;10.40;84.14;100066.38;4994058;28;45387;-88
2022/11/15 05:53:47;;;;;;;;;8.00;6.25;;;;;10.28;84.62;100021.44;4991980;28;45559;-87
2022/11/15 05:56:14;;;;;;;;;7.75;5.00;;;;;10.62;84.15;100077.41;4993475;28;46110;-86
2022/11/15 05:58:39;;;;;;;;;6.25;5.00;;;;;10.78;84.34;100076.91;4991910;28;45409;-87
2022/11/15 06:01:05;;;;;;;;;5.75;4.25;;;;;10.65;84.22;100056.47;4991686;28;45445;-87
2022/11/15 06:03:30;;;;;;;;;4.75;4.25;;;;;10.75;83.73;100061.06;4994363;28;45591;-90
2022/11/15 06:05:56;;;;;;;;;6.75;6.25;;;;;11.09;83.95;100107.41;4992414;28;46141;-87
2022/11/15 06:08:21;;;;;;;;;5.00;5.00;;;;;10.97;83.76;100078.19;4996344;28;46162;-87
2022/11/15 06:10:47;;;;;;;;;7.50;4.50;;;;;10.70;84.04;100005.78;5013104;28;45817;-87
2022/11/15 06:13:12;;;;;;;;;7.25;7.25;;;;;10.57;83.53;99982.69;5011725;28;45447;-88
2022/11/15 06:15:37;;;;;;;;;8.25;5.75;;;;;11.36;83.76;100120.25;5010834;28;47214;-87
2022/11/15 06:18:03;;;;;;;;;5.00;4.75;;;;;10.93;83.53;100044.81;5011606;28;45653;-87
2022/11/15 06:20:29;;;;;;;;;5.00;5.00;;;;;11.28;83.55;100093.81;5013184;28;45316;-86
2022/11/15 06:23:03;;;;;;;;;6.75;5.00;;;;;10.94;83.80;100015.06;5011794;28;45384;-87
2022/11/15 06:25:30;;;;;;;;;5.00;5.00;;;;;10.94;83.64;99999.28;5013082;28;45621;-87
2022/11/15 06:27:57;;;;;;;;;7.75;5.75;;;;;10.85;83.53;99987.69;5011141;28;46068;-88
2022/11/15 06:30:24;;;;;;;;;8.25;6.00;;;;;11.06;83.39;100010.03;5012300;28;45396;-88
2022/11/15 06:32:50;;;;;;;;;6.00;5.25;;;;;10.85;83.53;99978.94;5012868;28;45400;-87
2022/11/15 06:35:15;;;;;;;;;5.00;5.00;;;;;10.79;83.41;99958.66;5012635;28;45947;-89
2022/11/15 06:37:41;;;;;;;;;4.00;4.00;;;;;10.78;83.30;99963.88;5012393;28;45473;-86
2022/11/15 06:40:09;;;;;;;;;5.00;4.50;;;;;11.01;83.65;100002.06;5013255;28;45528;-84
2022/11/15 06:42:34;;;;;;;;;5.00;5.00;;;;;11.42;83.33;100080.03;5002068;28;45517;-85
2022/11/15 06:45:00;;;;;;;;;6.00;5.25;;;;;11.24;83.77;100046.38;4992336;28;48483;-85
2022/11/15 06:47:25;;;;;;;;;4.67;4.00;;;;;11.35;83.45;100072.03;4992770;28;45691;-85
2022/11/15 06:49:51;;;;;;;;;6.75;5.75;;;;;10.78;83.34;99959.50;4991757;28;45409;-83
2022/11/15 06:52:18;;;;;;;;;10.00;8.50;;;;;10.95;83.83;99987.91;4991417;28;45666;-86
2022/11/15 06:54:44;;;;;;;;;8.50;8.00;;;;;10.40;83.67;99879.88;4991922;28;45505;-84
2022/11/15 06:57:09;;;;;;;;;8.00;6.50;;;;;11.31;83.76;100041.25;4991959;28;45480;-84
2022/11/15 06:59:34;;;;;;;;;7.75;6.00;;;;;10.82;83.59;99957.81;4990553;28;45440;-86
2022/11/15 07:02:00;;;;;;;;;6.75;5.50;;;;;10.68;83.77;99933.00;4990440;28;45424;-87
2022/11/15 07:04:25;;;;;;;;;7.50;6.00;;;;;11.26;83.74;100042.88;4989960;28;48298;-86
2022/11/15 07:06:50;;;;;;;;;6.00;5.67;;;;;10.53;83.50;99908.16;4989887;28;53299;-85
2022/11/15 07:09:16;;;;;;;;;5.75;5.75;;;;;11.22;83.74;100032.28;5017831;28;45525;-85
2022/11/15 07:11:41;;;;;;;;;4.25;4.25;;;;;10.38;83.90;99897.34;5010151;28;45481;-87
2022/11/15 07:14:06;;;;;;;;;6.50;6.00;;;;;10.72;83.98;99937.47;5008165;28;48233;-83
2022/11/15 07:16:32;;;;;;;;;7.25;5.00;;;;;10.47;83.93;99910.66;5010323;28;45896;-84
2022/11/15 07:18:57;;;;;;;;;8.00;8.00;;;;;10.97;84.45;99988.81;5011621;28;45506;-86
2022/11/15 07:21:32;;;;;;;;;6.00;5.00;;;;;10.24;84.29;99867.25;5009464;28;45552;-86
2022/11/15 07:24:00;;;;;;;;;6.00;6.00;;;;;10.42;84.34;99887.78;4991269;28;46277;-85
2022/11/15 07:26:25;;;;;;;;;6.25;6.00;;;;;11.09;84.59;100010.13;4992283;28;46055;-84
2022/11/15 07:28:51;;;;;;;;;5.00;5.00;;;;;10.89;84.97;99964.13;4991521;28;45534;-84
2022/11/15 07:31:28;;;;;;;;;5.50;5.00;;;;;10.57;84.88;99898.63;4991278;28;45558;-87
2022/11/15 07:33:54;;;;;;;;;7.00;5.50;;;;;11.32;84.72;100024.59;4989501;28;47261;-86
2022/11/15 07:36:19;;;;;;;;;7.75;6.00;;;;;10.83;84.76;99938.56;4989649;28;55145;-86
2022/11/15 07:38:44;;;;;;;;;6.00;6.00;;;;;10.97;84.38;99952.00;4989560;28;45478;-87
2022/11/15 07:41:10;;;;;;;;;8.75;7.25;;;;;11.29;84.82;99986.84;4991122;28;45608;-87
2022/11/15 07:43:35;;;;;;;;;11.25;8.75;;;;;11.23;84.57;99950.78;4997985;28;45741;-85
2022/11/15 07:46:09;;;;;;;;;7.50;7.25;;;;;11.31;84.83;99961.44;5009999;28;45728;-87
2022/11/15 07:48:35;;;;;;;;;8.50;8.00;;;;;11.66;84.40;99998.91;4997739;28;45637;-85
2022/11/15 07:51:00;;;;;;;;;9.00;7.25;;;;;11.60;84.60;99980.41;5026269;28;45336;-87
2022/11/15 07:53:26;;;;;;;;;7.75;7.00;;;;;11.53;84.72;99968.88;4997295;28;45449;-85
2022/11/15 07:55:53;;;;;;;;;6.50;5.50;;;;;11.18;84.52;99891.94;5005517;28;45496;-87
2022/11/15 07:58:18;;;;;;;;;6.00;6.00;;;;;11.79;84.47;99989.50;5009547;28;45335;-86
2022/11/15 08:00:44;;;;;;;;;5.00;3.50;;;;;11.26;84.41;99886.81;5010185;28;45447;-88
2022/11/15 08:03:11;;;;;;;;;6.25;5.00;;;;;10.93;84.22;99816.97;5010068;28;45519;-85
2022/11/15 08:05:39;;;;;;;;;5.25;4.25;;;;;11.16;84.44;99859.47;5008703;28;45850;-85
2022/11/15 08:08:05;;;;;;;;;5.75;4.75;;;;;11.88;84.23;99977.44;5009882;28;45532;-84
2022/11/15 08:10:30;;;;;;;;;4.75;4.25;;;;;11.13;84.12;99826.94;5009411;28;45431;-87
2022/11/15 08:12:58;;;;;;;;;4.50;4.50;;;;;11.29;84.09;99848.31;5008837;28;46880;-86
2022/11/15 08:15:23;;;;;;;;;4.00;4.00;;;;;11.25;84.21;99851.72;5008977;28;45972;-88
2022/11/15 08:17:54;;;;;;;;;2.50;2.50;;;;;11.38;84.26;99868.63;5001777;28;45505;-86
2022/11/15 08:20:19;;;;;;;;;5.25;5.00;;;;;11.56;83.47;99879.44;4994058;28;45653;-85
2022/11/15 08:22:44;;;;;;;;;6.25;5.75;;;;;11.27;84.02;99828.06;5005808;28;47107;-87
2022/11/15 08:25:10;;;;;;;;;5.50;4.00;;;;;11.41;83.60;99844.97;4991165;28;45371;-84
2022/11/15 08:27:35;;;;;;;;;4.25;3.25;;;;;12.19;83.89;99964.75;4990958;28;45802;-87
2022/11/15 08:30:01;;;;;;;;;5.00;4.00;;;;;12.10;83.47;99935.63;4989470;28;45473;-87
2022/11/15 08:32:26;;;;;;;;;4.00;4.00;;;;;12.28;83.71;99946.44;4989504;28;48596;-86
2022/11/15 08:34:52;;;;;;;;;6.00;5.25;;;;;12.03;84.07;99894.28;4990611;28;45578;-87
2022/11/15 08:37:17;;;;;;;;;6.00;5.75;;;;;12.43;83.49;99955.44;4990067;28;46219;-87
2022/11/15 08:39:42;;;;;;;;;6.00;4.75;;;;;11.89;83.10;99844.03;4990872;28;45787;-88
2022/11/15 08:42:08;;;;;;;;;3.00;3.00;;;;;12.49;83.43;99955.53;4990827;28;48209;-87
2022/11/15 08:44:36;;;;;;;;;4.50;4.00;;;;;11.90;82.83;99834.38;5007520;28;45627;-87
2022/11/15 08:47:02;;;;;;;;;5.75;5.25;;;;;11.95;83.11;99827.41;5010008;28;45555;-87
2022/11/15 08:49:27;;;;;;;;;6.00;6.00;;;;;12.33;83.28;99868.34;4991679;28;45439;-87
2022/11/15 08:51:52;;;;;;;;;3.25;3.25;;;;;12.25;82.86;99854.19;4992740;28;47546;-84
2022/11/15 08:54:17;;;;;;;;;5.00;4.00;;;;;12.25;82.65;99835.72;4994378;28;45426;-84
2022/11/15 08:56:43;;;;;;;;;3.00;3.00;;;;;12.18;82.75;99819.84;4993534;28;45482;-84
2022/11/15 08:59:08;;;;;;;;;5.00;5.00;;;;;12.26;82.71;99816.41;5009725;28;45505;-86
2022/11/15 09:01:34;;;;;;;;;5.00;4.00;;;;;12.83;82.69;99912.03;5011334;28;46936;-84
2022/11/15 09:03:59;;;;;;;;;4.25;4.25;;;;;12.76;82.29;99894.34;5013490;28;45714;-84
2022/11/15 09:06:25;;;;;;;;;4.50;4.00;;;;;12.26;82.26;99819.06;4992740;28;45804;-85
2022/11/15 09:08:50;;;;;;;;;3.00;3.00;;;;;12.29;82.39;99813.84;5005136;28;45439;-84
2022/11/15 09:11:17;;;;;;;;;5.00;5.00;;;;;12.64;82.25;99882.78;5011979;28;46956;-84
2022/11/15 09:13:43;;;;;;;;;4.75;4.75;;;;;12.14;82.34;99784.66;5011298;28;45969;-85
2022/11/15 09:16:08;;;;;;;;;5.00;4.00;;;;;12.47;82.44;99842.19;5010164;28;45571;-84
2022/11/15 09:18:34;;;;;;;;;4.50;4.50;;;;;12.89;82.43;99912.09;5011576;28;45423;-84
2022/11/15 09:21:00;;;;;;;;;4.50;4.00;;;;;12.89;81.79;99907.69;5011713;28;48284;-87
2022/11/15 09:23:26;;;;;;;;;4.00;4.00;;;;;12.00;82.29;99754.63;5011746;28;45833;-84
2022/11/15 09:25:57;;;;;;;;;4.50;4.00;;;;;12.31;82.34;99806.81;5012866;28;45559;-87
2022/11/15 09:28:22;;;;;;;;;4.00;4.00;;;;;12.18;82.14;99754.88;5012110;28;45567;-85
2022/11/15 09:30:48;;;;;;;;;2.75;2.75;;;;;12.65;81.66;99825.69;5011158;28;48056;-84
2022/11/15 09:33:13;;;;;;;;;3.75;2.00;;;;;12.89;81.12;99865.50;5012811;28;45296;-85
2022/11/15 09:35:40;;;;;;;;;3.00;2.75;;;;;13.18;80.46;99915.94;5012935;28;45437;-84
2022/11/15 09:38:06;;;;;;;;;2.50;2.00;;;;;13.23;80.95;99912.50;5011663;28;45427;-85
2022/11/15 09:40:35;;;;;;;;;3.75;3.00;;;;;12.94;80.48;99856.75;5011526;28;47232;-84
2022/11/15 09:43:22;;;;;;;;;2.75;2.75;;;;;12.54;80.74;99798.31;5011204;28;45880;-84
2022/11/15 09:45:57;;;;;;;;;2.75;2.75;;;;;13.15;81.13;99892.19;5011101;28;45349;-85
2022/11/15 09:48:28;;;;;;;;;3.00;3.00;;;;;12.91;81.20;99855.00;5012920;28;45616;-85
2022/11/15 09:51:00;;;;;;;;;3.25;2.75;;;;;13.08;82.17;99919.34;5011316;28;48493;-87
2022/11/15 09:53:35;;;;;;;;;4.25;3.25;;;;;12.76;82.20;99852.16;5011601;28;45452;-85
2022/11/15 09:56:03;;;;;;;;;3.75;3.25;;;;;12.28;82.61;99755.88;5013093;28;45548;-86
2022/11/15 09:58:54;;;;;;;;;4.25;4.25;;;;;13.01;82.73;99883.25;5018935;28;45603;-87
2022/11/15 10:01:47;;;;;;;;;8.50;7.50;;;;;12.36;82.55;99768.28;5029624;28;45319;-87
2022/11/15 10:04:14;;;;;;;;;8.00;7.75;;;;;12.84;83.14;99832.03;5017552;28;45748;-87
2022/11/15 10:06:46;;;;;;;;;16.25;13.25;;;;;12.82;83.22;99810.94;5009593;28;44803;-86
2022/11/15 10:09:31;;;;;;;;;18.25;16.25;;;;;13.23;82.83;99871.16;5017636;28;44925;-87
2022/11/15 10:11:57;;;;;;;;;14.00;13.75;;;;;13.28;83.12;99853.63;5023649;28;47110;-88
2022/11/15 10:14:27;;;;;;;;;6.50;6.50;;;;;13.32;83.31;99841.34;5026624;28;46137;-86
2022/11/15 10:16:58;;;;;;;;;16.50;16.50;;;;;13.35;83.12;99822.91;5011661;28;45436;-87
2022/11/15 10:19:59;;;;;;;;;8.75;8.75;;;;;13.50;83.44;99828.31;5012840;28;45560;-88
2022/11/15 10:22:28;;;;;;;;;10.00;10.00;;;;;13.49;82.93;99815.97;4970905;28;45599;-88
2022/11/15 10:25:13;;;;;;;;;12.00;12.00;;;;;13.64;82.25;99852.16;5003906;28;45952;-87
2022/11/15 10:27:40;;;;;;;;;13.50;13.25;;;;;13.58;82.81;99839.81;5012652;28;45615;-86
2022/11/15 10:30:18;;;;;;;;;9.50;9.25;;;;;13.53;82.78;99817.75;5010859;28;45589;-87
2022/11/15 10:32:45;;;;;;;;;11.50;11.00;;;;;13.34;83.18;99790.34;5011914;28;45712;-87
2022/11/15 10:35:21;;;;;;;;;7.00;5.75;;;;;13.46;83.56;99799.25;5010742;28;46003;-89
2022/11/15 10:37:47;;;;;;;;;10.25;8.00;;;;;13.49;82.96;99817.72;5010802;28;45548;-88
2022/11/15 10:40:20;;;;;;;;;13.50;13.00;;;;;13.27;83.47;99777.09;5010380;28;45979;-86
2022/11/15 10:42:46;;;;;;;;;12.50;11.00;;;;;13.42;83.37;99815.03;5010934;28;45510;-86
2022/11/15 10:45:27;;;;;;;;;8.75;8.75;;;;;12.63;83.67;99672.78;4992184;28;45391;-86
2022/11/15 10:47:53;;;;;;;;;12.75;12.25;;;;;13.39;83.48;99804.44;4990362;28;45354;-86
2022/11/15 10:50:29;;;;;;;;;13.75;12.00;;;;;13.40;83.94;99790.41;4991351;28;45561;-86
2022/11/15 10:52:54;;;;;;;;;15.25;14.00;;;;;12.80;84.08;99685.22;4990692;28;48389;-85
2022/11/15 10:55:25;;;;;;;;;12.00;11.25;;;;;13.35;83.88;99786.84;5007333;28;45348;-87
2022/11/15 10:57:54;;;;;;;;;7.00;7.00;;;;;12.86;83.73;99696.72;4989326;28;45826;-85
2022/11/15 11:00:19;;;;;;;;;10.00;8.75;;;;;13.43;84.33;99753.47;4992393;28;45411;-87
2022/11/15 11:03:03;;;;;;;;;11.67;8.00;;;;;13.41;84.29;99786.00;4990322;28;47047;-86
2022/11/15 11:05:37;;;;;;;;;14.25;12.75;;;;;13.38;87.09;99776.28;4990900;28;46037;-84
2022/11/15 11:08:10;;;;;;;;;13.00;13.00;;;;;13.36;84.67;99748.13;4991894;28;45463;-84
2022/11/15 11:10:37;;;;;;;;;7.00;7.00;;;;;12.80;84.63;99662.34;5011443;28;45485;-84
2022/11/15 11:13:28;;;;;;;;;8.50;7.75;;;;;13.41;84.68;99746.41;5009761;28;45745;-84
2022/11/15 11:16:20;;;;;;;;;8.75;8.50;;;;;13.35;84.86;99736.72;4989201;28;46017;-85
2022/11/15 11:18:49;;;;;;;;;9.75;8.75;;;;;13.41;84.97;99744.66;5006304;28;45467;-85
2022/11/15 11:21:24;;;;;;;;;8.00;8.00;;;;;13.41;85.36;99747.28;4992091;28;45474;-85
2022/11/15 11:24:13;;;;;;;;;10.25;8.75;;;;;13.26;84.96;99706.72;5007405;28;47358;-85
2022/11/15 11:26:56;;;;;;;;;7.50;7.50;;;;;12.78;85.04;99629.84;5011065;28;46403;-85
2022/11/15 11:29:44;;;;;;;;;11.25;10.50;;;;;13.34;85.14;99723.47;5011755;28;45545;-85
2022/11/15 11:32:33;;;;;;;;;8.75;8.50;;;;;13.39;85.24;99745.50;5010918;28;45292;-84
2022/11/15 11:35:13;;;;;;;;;12.25;10.50;;;;;13.11;85.53;99689.00;5009340;28;47403;-84
2022/11/15 11:38:04;;;;;;;;;11.25;9.50;;;;;13.14;85.65;99686.34;5009519;28;45542;-85
2022/11/15 11:41:00;;;;;;;;;7.50;6.00;;;;;13.12;86.65;99680.19;5011195;28;45456;-84
2022/11/15 11:43:50;;;;;;;;;5.50;5.50;;;;;13.33;86.27;99714.69;5012071;28;45482;-84
2022/11/15 11:46:29;;;;;;;;;7.00;7.00;;;;;13.36;86.35;99714.72;5009887;28;47285;-84
2022/11/15 11:49:09;;;;;;;;;12.75;11.25;;;;;13.08;86.61;99657.31;5011431;28;45278;-84